Time;durP1;ratioP1;P1;durP2;ratioP2;P2;SDS_P1;SDS_P2;PMS_P1;PMS_P2;Temp;Humidity;BMP_temperature;BMP_pressure;BME280_temperature;BME280_humidity;BME280_pressure;Samples;Min_cycle;Max_cycle;Signal;HPM_P1;HPM_P2
2021/08/30 00:02:12;;;;;;;17.58;9.93;;;16.00;99.90;;;;;;4950435;28;20073;-67
2021/08/30 00:04:37;;;;;;;16.10;10.65;;;15.90;99.90;;;;;;4951631;28;20035;-67
2021/08/30 00:07:03;;;;;;;16.58;10.13;;;15.80;99.90;;;;;;4951133;28;20028;-67
2021/08/30 00:09:28;;;;;;;18.13;10.88;;;15.80;99.90;;;;;;4953051;29;20500;-67
2021/08/30 00:11:54;;;;;;;14.90;10.25;;;15.70;99.90;;;;;;4952076;29;20019;-67
2021/08/30 00:14:19;;;;;;;18.27;11.10;;;15.70;99.90;;;;;;4951287;29;20402;-67
2021/08/30 00:16:46;;;;;;;19.80;10.02;;;15.70;99.90;;;;;;4953618;28;20046;-67
2021/08/30 00:19:12;;;;;;;17.08;10.80;;;15.60;99.90;;;;;;4953536;29;20493;-67
2021/08/30 00:21:37;;;;;;;15.88;10.30;;;15.60;99.90;;;;;;4952562;28;20114;-67
2021/08/30 00:24:03;;;;;;;17.02;10.88;;;15.60;99.90;;;;;;4950051;29;20031;-67
2021/08/30 00:26:29;;;;;;;16.58;10.18;;;15.50;99.90;;;;;;4946936;29;20040;-67
2021/08/30 00:28:54;;;;;;;19.60;12.32;;;15.50;99.90;;;;;;4952708;29;20440;-67
2021/08/30 00:31:20;;;;;;;20.33;11.82;;;15.50;99.90;;;;;;4952209;28;20027;-68
2021/08/30 00:33:46;;;;;;;22.13;11.35;;;15.50;99.90;;;;;;4951737;28;20054;-67
2021/08/30 00:36:11;;;;;;;19.27;11.13;;;15.50;99.90;;;;;;4952298;29;20035;-67
2021/08/30 00:38:37;;;;;;;23.05;11.60;;;15.50;99.90;;;;;;4953381;29;20023;-67
2021/08/30 00:41:03;;;;;;;21.27;11.65;;;15.50;99.90;;;;;;4944228;29;20043;-67
2021/08/30 00:43:28;;;;;;;15.80;10.50;;;15.40;99.90;;;;;;4950344;28;20039;-67
2021/08/30 00:45:54;;;;;;;18.67;11.82;;;15.40;99.90;;;;;;4952030;29;20043;-67
2021/08/30 00:48:19;;;;;;;20.02;11.25;;;15.40;99.90;;;;;;4951138;29;20024;-67
2021/08/30 00:50:45;;;;;;;17.83;10.13;;;15.40;99.90;;;;;;4951965;29;20039;-67
2021/08/30 00:53:11;;;;;;;23.75;12.18;;;15.30;99.90;;;;;;4951841;29;20038;-67
2021/08/30 00:55:36;;;;;;;23.35;11.88;;;15.30;99.90;;;;;;4951792;29;20090;-67
2021/08/30 00:58:05;;;;;;;18.60;12.05;;;15.30;99.90;;;;;;4951321;29;20035;-67
2021/08/30 01:00:30;;;;;;;18.60;11.68;;;15.30;99.90;;;;;;4950636;29;21565;-67
2021/08/30 01:02:56;;;;;;;19.52;11.57;;;15.30;99.90;;;;;;4944378;29;20438;-67
2021/08/30 01:05:22;;;;;;;20.25;11.98;;;15.30;99.90;;;;;;4950946;29;20131;-67
2021/08/30 01:08:08;;;;;;;18.70;11.57;;;15.20;99.90;;;;;;4951809;29;20034;-67
2021/08/30 01:10:53;;;;;;;20.20;11.52;;;15.30;99.90;;;;;;4951081;28;20105;-67
2021/08/30 01:13:25;;;;;;;18.60;10.93;;;15.30;99.90;;;;;;4946022;29;20082;-67
2021/08/30 01:15:51;;;;;;;20.40;11.57;;;15.30;99.90;;;;;;4951119;29;20478;-66
2021/08/30 01:18:23;;;;;;;20.40;12.10;;;15.20;99.90;;;;;;4951558;28;20380;-66
2021/08/30 01:21:20;;;;;;;25.02;12.43;;;15.20;99.90;;;;;;4952169;28;20023;-66
2021/08/30 01:23:53;;;;;;;20.10;12.48;;;15.30;99.90;;;;;;4948320;28;20031;-66
2021/08/30 01:26:21;;;;;;;21.55;12.40;;;15.20;99.90;;;;;;4968252;28;20122;-66
2021/08/30 01:28:58;;;;;;;20.17;12.65;;;15.30;99.90;;;;;;4951992;28;20027;-66
2021/08/30 01:31:39;;;;;;;19.42;12.15;;;15.30;99.90;;;;;;4949677;29;20035;-66
2021/08/30 01:34:04;;;;;;;19.92;12.88;;;15.40;99.90;;;;;;4952312;28;20031;-66
2021/08/30 01:36:32;;;;;;;18.58;12.60;;;15.40;99.90;;;;;;4955301;28;20552;-66
2021/08/30 01:38:59;;;;;;;22.65;13.00;;;15.50;99.90;;;;;;4953751;28;20038;-66
2021/08/30 01:41:27;;;;;;;19.67;12.95;;;15.50;99.90;;;;;;4956755;29;20544;-66
2021/08/30 01:43:53;;;;;;;20.98;12.38;;;15.50;99.90;;;;;;4956258;28;20034;-66
2021/08/30 01:46:20;;;;;;;20.20;13.23;;;15.60;99.90;;;;;;4955164;28;20039;-66
2021/08/30 01:48:50;;;;;;;19.40;12.27;;;15.60;99.90;;;;;;4954550;29;20027;-66
2021/08/30 01:51:18;;;;;;;19.33;12.80;;;15.70;99.90;;;;;;4953378;29;20027;-66
2021/08/30 01:53:46;;;;;;;21.13;12.70;;;15.70;99.90;;;;;;4952144;28;20041;-66
2021/08/30 01:56:13;;;;;;;21.77;12.32;;;15.70;99.90;;;;;;4953921;29;20034;-66
2021/08/30 02:01:29;;;;;;;20.85;13.40;;;15.80;99.90;;;;;;4955059;28;20394;-66
2021/08/30 02:03:54;;;;;;;19.13;12.45;;;15.80;99.90;;;;;;4954516;29;20032;-67
2021/08/30 02:06:20;;;;;;;20.25;13.50;;;15.90;99.90;;;;;;4955183;28;20031;-66
2021/08/30 02:08:45;;;;;;;19.10;11.82;;;15.90;99.90;;;;;;4954882;29;20536;-66
2021/08/30 02:11:14;;;;;;;19.73;12.70;;;15.90;99.90;;;;;;4955497;29;20027;-66
2021/08/30 02:13:40;;;;;;;17.92;11.35;;;15.90;99.90;;;;;;4954793;28;20027;-66
2021/08/30 02:16:06;;;;;;;15.90;11.77;;;16.00;99.90;;;;;;4955227;28;20033;-66
2021/08/30 02:18:44;;;;;;;18.23;11.95;;;16.00;99.90;;;;;;4954208;29;20035;-66
2021/08/30 02:21:38;;;;;;;18.83;11.02;;;16.00;99.90;;;;;;4954481;29;20027;-66
2021/08/30 02:24:08;;;;;;;25.60;12.82;;;16.00;99.90;;;;;;4949840;29;20070;-67
2021/08/30 02:26:50;;;;;;;16.95;10.93;;;16.00;99.90;;;;;;4952551;28;20043;-66
2021/08/30 02:29:20;;;;;;;16.55;10.50;;;16.00;99.90;;;;;;4954290;28;20023;-67
2021/08/30 02:31:49;;;;;;;19.42;11.35;;;16.00;99.90;;;;;;4954437;29;20460;-67
2021/08/30 02:34:21;;;;;;;16.08;10.40;;;16.00;99.90;;;;;;4954133;28;20177;-67
2021/08/30 02:36:49;;;;;;;16.92;10.80;;;16.10;99.90;;;;;;4955516;28;20269;-67
2021/08/30 02:39:17;;;;;;;16.10;11.05;;;16.10;99.90;;;;;;4954676;28;20035;-67
2021/08/30 02:41:44;;;;;;;15.00;10.88;;;16.10;99.90;;;;;;4955146;29;20390;-67
2021/08/30 02:44:11;;;;;;;17.92;10.88;;;16.10;99.90;;;;;;4951355;28;20034;-67
2021/08/30 02:46:38;;;;;;;15.90;10.82;;;16.10;99.90;;;;;;4954480;28;20474;-67
2021/08/30 02:49:05;;;;;;;19.50;10.82;;;16.20;99.90;;;;;;4952955;28;20023;-67
2021/08/30 02:51:31;;;;;;;16.20;10.95;;;16.10;99.90;;;;;;4966144;28;20031;-67
2021/08/30 02:53:57;;;;;;;17.15;10.60;;;16.10;99.90;;;;;;4951763;28;20099;-67
2021/08/30 02:56:23;;;;;;;16.52;10.93;;;16.20;99.90;;;;;;4952400;28;20546;-67
2021/08/30 02:58:49;;;;;;;18.85;11.40;;;16.20;99.90;;;;;;4954725;28;20043;-67
2021/08/30 03:01:17;;;;;;;16.85;10.40;;;16.20;99.90;;;;;;4955663;28;20379;-66
2021/08/30 03:03:43;;;;;;;23.77;10.68;;;16.10;99.90;;;;;;4954096;28;20024;-67
2021/08/30 03:06:09;;;;;;;16.25;11.05;;;16.10;99.90;;;;;;4953846;28;20465;-67
2021/08/30 03:08:34;;;;;;;15.07;10.77;;;16.10;99.90;;;;;;4952564;28;20033;-66
2021/08/30 03:11:02;;;;;;;15.52;11.55;;;16.10;99.90;;;;;;4953251;28;20474;-66
2021/08/30 03:13:29;;;;;;;16.27;11.00;;;16.20;99.90;;;;;;4953694;28;20031;-67
2021/08/30 03:15:56;;;;;;;18.90;11.32;;;16.10;99.90;;;;;;4950254;28;20023;-67
2021/08/30 03:18:22;;;;;;;19.00;12.57;;;16.10;99.90;;;;;;4952482;29;20086;-66
2021/08/30 03:20:52;;;;;;;17.75;12.38;;;16.10;99.90;;;;;;4975590;28;20478;-66
2021/08/30 03:23:19;;;;;;;20.80;13.18;;;16.20;99.90;;;;;;4953904;28;20031;-67
2021/08/30 03:25:46;;;;;;;19.20;12.48;;;16.10;99.90;;;;;;4952033;28;20055;-66
2021/08/30 03:28:12;;;;;;;21.33;14.02;;;16.10;99.90;;;;;;4954409;29;20043;-66
2021/08/30 03:30:38;;;;;;;19.83;13.43;;;16.10;99.90;;;;;;4950798;29;20023;-66
2021/08/30 03:33:05;;;;;;;16.95;12.65;;;16.10;99.90;;;;;;4953546;29;20043;-67
2021/08/30 03:35:31;;;;;;;20.27;13.70;;;16.10;99.90;;;;;;4941533;29;20035;-66
2021/08/30 03:37:57;;;;;;;22.33;13.60;;;16.10;99.90;;;;;;4948499;29;20031;-66
2021/08/30 03:40:24;;;;;;;20.40;12.75;;;16.10;99.90;;;;;;4954548;28;20034;-66
2021/08/30 03:42:50;;;;;;;19.73;13.55;;;16.10;99.90;;;;;;4953228;28;20039;-67
2021/08/30 03:45:17;;;;;;;22.08;13.63;;;16.10;99.90;;;;;;4952198;28;20110;-67
2021/08/30 03:47:43;;;;;;;19.85;12.50;;;16.10;99.90;;;;;;4951360;28;20602;-67
2021/08/30 03:50:12;;;;;;;21.45;13.25;;;16.10;99.90;;;;;;4954275;28;20037;-66
2021/08/30 03:52:40;;;;;;;17.05;12.55;;;16.10;99.90;;;;;;4949110;29;20096;-67
2021/08/30 03:55:10;;;;;;;22.27;13.35;;;16.10;99.90;;;;;;4952203;28;20065;-66
2021/08/30 03:57:36;;;;;;;21.65;12.63;;;16.10;99.90;;;;;;4950949;28;20039;-66
2021/08/30 04:00:05;;;;;;;19.40;12.88;;;16.10;99.90;;;;;;4952625;29;20117;-67
2021/08/30 04:02:31;;;;;;;19.48;13.50;;;16.10;99.90;;;;;;4939783;29;20039;-67
2021/08/30 04:04:58;;;;;;;20.20;14.55;;;16.10;99.90;;;;;;4954647;28;20031;-67
2021/08/30 04:07:24;;;;;;;22.92;13.55;;;16.00;99.90;;;;;;4952801;29;20485;-67
2021/08/30 04:09:51;;;;;;;20.75;13.25;;;16.10;99.90;;;;;;4950666;28;20434;-67
2021/08/30 04:12:19;;;;;;;22.80;14.23;;;16.00;99.90;;;;;;4941495;28;20118;-67
2021/08/30 04:14:46;;;;;;;21.45;13.18;;;16.00;99.90;;;;;;4947292;28;20429;-67
2021/08/30 04:17:11;;;;;;;19.15;13.27;;;16.00;99.90;;;;;;4947236;28;20031;-67
2021/08/30 04:19:37;;;;;;;23.02;13.80;;;16.00;99.90;;;;;;4954591;28;20082;-66
2021/08/30 04:22:03;;;;;;;22.98;14.77;;;16.00;99.90;;;;;;4954075;28;20493;-67
2021/08/30 04:24:29;;;;;;;23.15;14.75;;;16.00;99.90;;;;;;4951447;28;20446;-67
2021/08/30 04:26:57;;;;;;;24.63;14.80;;;16.00;99.90;;;;;;4951909;28;20032;-67
2021/08/30 04:29:22;;;;;;;26.48;15.50;;;16.10;99.90;;;;;;4953886;29;20070;-67
2021/08/30 04:31:48;;;;;;;23.48;14.55;;;16.10;99.90;;;;;;4953787;29;20078;-67
2021/08/30 04:34:20;;;;;;;22.98;15.68;;;16.00;99.90;;;;;;4950606;28;20039;-67
2021/08/30 04:36:46;;;;;;;22.52;15.73;;;16.10;99.90;;;;;;4952721;28;20058;-67
2021/08/30 04:39:11;;;;;;;23.88;14.77;;;16.10;99.90;;;;;;4945149;29;20070;-67
2021/08/30 04:41:37;;;;;;;27.00;15.60;;;16.10;99.90;;;;;;4945095;29;20046;-67
2021/08/30 04:44:03;;;;;;;28.90;17.60;;;16.10;99.90;;;;;;4947296;28;20023;-67
2021/08/30 04:46:29;;;;;;;22.98;15.60;;;16.10;99.90;;;;;;4942513;28;20386;-67
2021/08/30 04:48:56;;;;;;;27.42;16.63;;;16.10;99.90;;;;;;4946632;29;20031;-67
2021/08/30 04:51:21;;;;;;;28.80;16.88;;;16.20;99.90;;;;;;4947975;29;20074;-67
2021/08/30 04:53:47;;;;;;;27.02;17.13;;;16.20;99.90;;;;;;4951674;29;20027;-66
2021/08/30 04:56:13;;;;;;;32.28;18.38;;;16.20;99.90;;;;;;4952618;29;20042;-67
2021/08/30 04:58:38;;;;;;;30.58;17.38;;;16.20;99.90;;;;;;4950659;28;20039;-67
2021/08/30 05:01:04;;;;;;;26.25;17.63;;;16.30;99.90;;;;;;4946765;28;20474;-66
2021/08/30 05:03:29;;;;;;;28.90;16.92;;;16.30;99.90;;;;;;4952877;29;20035;-66
2021/08/30 05:05:55;;;;;;;31.00;17.52;;;16.30;99.90;;;;;;4948232;29;20046;-67
2021/08/30 05:08:20;;;;;;;29.08;16.98;;;16.30;99.90;;;;;;4951553;28;20027;-67
2021/08/30 05:10:46;;;;;;;34.05;19.80;;;16.30;99.90;;;;;;4944855;29;20077;-67
2021/08/30 05:13:11;;;;;;;34.13;18.05;;;16.30;99.90;;;;;;4950942;28;20497;-67
2021/08/30 05:15:42;;;;;;;32.38;19.15;;;16.40;99.90;;;;;;4948933;28;20393;-69
2021/08/30 05:18:08;;;;;;;32.95;19.63;;;16.40;99.90;;;;;;4952536;28;20445;-68
2021/08/30 05:20:33;;;;;;;32.80;18.40;;;16.40;99.90;;;;;;4947913;28;20031;-68
2021/08/30 05:22:59;;;;;;;33.92;18.75;;;16.40;99.90;;;;;;4951820;29;20035;-68
2021/08/30 05:25:24;;;;;;;31.85;18.63;;;16.40;99.90;;;;;;4947801;28;20474;-68
2021/08/30 05:27:51;;;;;;;33.35;18.73;;;16.40;99.90;;;;;;4945628;28;20462;-65
2021/08/30 05:30:18;;;;;;;31.73;17.77;;;16.40;99.90;;;;;;4941436;28;20027;-67
2021/08/30 05:32:44;;;;;;;33.13;18.35;;;16.50;99.90;;;;;;4945046;29;20047;-67
2021/08/30 05:35:09;;;;;;;37.45;19.67;;;16.50;99.90;;;;;;4945447;28;20039;-67
2021/08/30 05:37:35;;;;;;;33.40;18.27;;;16.50;99.90;;;;;;4947749;28;20035;-67
2021/08/30 05:40:01;;;;;;;30.40;18.50;;;16.50;99.90;;;;;;4944980;28;20027;-67
2021/08/30 05:42:26;;;;;;;31.40;18.95;;;16.60;99.90;;;;;;4965141;28;20042;-66
2021/08/30 05:44:52;;;;;;;32.17;20.23;;;16.60;99.90;;;;;;4950289;29;20059;-66
2021/08/30 05:47:17;;;;;;;33.33;18.88;;;16.60;99.90;;;;;;4950719;28;20075;-67
2021/08/30 05:49:43;;;;;;;33.90;19.25;;;16.60;99.90;;;;;;4952443;28;20035;-67
2021/08/30 05:52:12;;;;;;;28.75;17.40;;;16.60;99.90;;;;;;4949313;28;20037;-67
2021/08/30 05:54:38;;;;;;;29.60;19.33;;;16.70;99.90;;;;;;4948221;28;20034;-67
2021/08/30 05:57:03;;;;;;;28.92;17.05;;;16.70;99.90;;;;;;4953260;28;20027;-67
2021/08/30 05:59:29;;;;;;;32.00;18.10;;;16.70;99.90;;;;;;4953266;28;20035;-68
2021/08/30 06:01:54;;;;;;;32.45;18.35;;;16.70;99.90;;;;;;4949446;28;20437;-67
2021/08/30 06:04:20;;;;;;;33.25;18.85;;;16.80;99.90;;;;;;4952537;29;20023;-68
2021/08/30 06:06:45;;;;;;;29.45;17.95;;;16.80;99.90;;;;;;4950770;29;20082;-69
2021/08/30 06:09:11;;;;;;;29.92;18.27;;;16.90;99.90;;;;;;4952700;29;20023;-69
2021/08/30 06:11:36;;;;;;;30.23;17.30;;;16.90;99.90;;;;;;4951505;28;20401;-69
2021/08/30 06:14:02;;;;;;;30.80;17.15;;;16.90;99.90;;;;;;4950365;28;20035;-68
2021/08/30 06:16:27;;;;;;;37.22;17.83;;;16.90;99.90;;;;;;4951178;28;20032;-68
2021/08/30 06:18:53;;;;;;;30.27;17.85;;;17.00;99.90;;;;;;4951296;28;20039;-68
2021/08/30 06:21:18;;;;;;;25.95;17.38;;;17.00;99.90;;;;;;4953828;28;20135;-68
2021/08/30 06:23:44;;;;;;;31.13;17.60;;;17.10;99.90;;;;;;4956110;29;20038;-68
2021/08/30 06:26:09;;;;;;;28.65;17.42;;;17.10;99.90;;;;;;4953979;29;20075;-68
2021/08/30 06:28:35;;;;;;;32.38;17.83;;;17.20;99.90;;;;;;4955926;29;20027;-68
2021/08/30 06:31:00;;;;;;;30.15;18.20;;;17.20;99.90;;;;;;4950942;28;20059;-68
2021/08/30 06:33:26;;;;;;;32.03;17.17;;;17.30;99.90;;;;;;4953199;28;20043;-68
2021/08/30 06:35:51;;;;;;;31.90;17.83;;;17.30;99.90;;;;;;4954735;29;20043;-68
2021/08/30 06:38:17;;;;;;;32.42;17.90;;;17.40;99.90;;;;;;4953758;28;20047;-68
2021/08/30 06:40:43;;;;;;;28.73;17.75;;;17.40;99.90;;;;;;4954885;29;20079;-68
2021/08/30 06:43:09;;;;;;;29.25;17.75;;;17.50;99.90;;;;;;4950992;28;20106;-68
2021/08/30 06:45:34;;;;;;;29.00;15.98;;;17.60;99.90;;;;;;4954085;28;20035;-68
2021/08/30 06:48:00;;;;;;;27.40;16.13;;;17.60;99.90;;;;;;4955354;29;20031;-68
2021/08/30 06:50:26;;;;;;;28.90;16.38;;;17.70;99.90;;;;;;4954358;28;20024;-68
2021/08/30 06:52:52;;;;;;;26.23;15.95;;;17.80;99.90;;;;;;4956104;29;20438;-68
2021/08/30 06:55:18;;;;;;;30.05;16.48;;;17.90;99.90;;;;;;4955445;28;20027;-68
2021/08/30 06:57:43;;;;;;;32.80;17.58;;;17.90;99.90;;;;;;4952964;29;20031;-67
2021/08/30 07:00:10;;;;;;;29.90;17.15;;;18.00;99.90;;;;;;4953760;29;20035;-67
2021/08/30 07:02:36;;;;;;;26.63;16.95;;;18.00;99.90;;;;;;4955213;29;20644;-67
2021/08/30 07:05:03;;;;;;;25.77;16.67;;;18.00;99.90;;;;;;4949743;29;20042;-66
2021/08/30 07:07:28;;;;;;;30.83;18.02;;;18.00;99.90;;;;;;4947306;28;20024;-66
2021/08/30 07:09:54;;;;;;;28.55;17.23;;;18.10;99.90;;;;;;4955634;29;20050;-66
2021/08/30 07:12:20;;;;;;;31.63;16.95;;;18.10;99.90;;;;;;4954915;28;20019;-68
2021/08/30 07:14:46;;;;;;;28.90;16.90;;;18.20;99.90;;;;;;4954997;29;20102;-67
2021/08/30 07:17:11;;;;;;;29.63;16.05;;;18.30;99.90;;;;;;4947403;29;20032;-67
2021/08/30 07:19:37;;;;;;;29.27;17.23;;;18.40;99.90;;;;;;4955126;28;20043;-68
2021/08/30 07:22:04;;;;;;;20.63;14.55;;;18.50;99.90;;;;;;4955759;28;20504;-68
2021/08/30 07:24:30;;;;;;;23.52;15.10;;;18.60;99.90;;;;;;4955309;28;20103;-66
2021/08/30 07:26:55;;;;;;;28.17;16.88;;;18.70;99.90;;;;;;4955388;29;20031;-67
2021/08/30 07:29:21;;;;;;;22.92;16.05;;;18.70;99.90;;;;;;4953921;29;20031;-67
2021/08/30 07:31:46;;;;;;;33.63;16.98;;;18.80;99.90;;;;;;4952787;28;20098;-67
2021/08/30 07:34:12;;;;;;;24.33;16.40;;;18.90;99.90;;;;;;4955381;29;20027;-67
2021/08/30 07:36:37;;;;;;;24.58;16.05;;;19.00;99.90;;;;;;4955262;28;20438;-67
2021/08/30 07:39:04;;;;;;;30.40;15.63;;;19.10;99.90;;;;;;4954391;29;20564;-67
2021/08/30 07:41:30;;;;;;;25.75;14.90;;;19.20;99.90;;;;;;4952808;28;20062;-67
2021/08/30 07:43:57;;;;;;;22.45;15.35;;;19.30;99.90;;;;;;4954932;28;20027;-67
2021/08/30 07:46:24;;;;;;;27.25;15.23;;;19.50;99.90;;;;;;4953339;28;20031;-67
2021/08/30 07:48:50;;;;;;;27.55;15.77;;;19.60;99.90;;;;;;4954980;28;20359;-67
2021/08/30 07:51:17;;;;;;;25.15;15.35;;;19.60;99.90;;;;;;4954272;29;20486;-67
2021/08/30 07:53:43;;;;;;;23.02;13.60;;;19.50;99.90;;;;;;4955400;29;20032;-67
2021/08/30 07:56:10;;;;;;;22.63;13.38;;;19.50;99.90;;;;;;4949490;28;20367;-67
2021/08/30 07:58:35;;;;;;;20.25;14.35;;;19.50;99.90;;;;;;4954193;28;20031;-67
2021/08/30 08:01:01;;;;;;;20.27;14.40;;;19.50;99.90;;;;;;4953045;29;20039;-67
2021/08/30 08:03:27;;;;;;;22.65;14.60;;;19.50;99.90;;;;;;4954069;28;20395;-66
2021/08/30 08:05:52;;;;;;;25.30;14.35;;;19.40;99.90;;;;;;4943600;28;20042;-67
2021/08/30 08:08:18;;;;;;;19.17;14.20;;;19.50;99.90;;;;;;4949223;29;20035;-66
2021/08/30 08:10:43;;;;;;;25.52;14.60;;;19.50;99.90;;;;;;4953528;29;20043;-67
2021/08/30 08:13:10;;;;;;;21.60;14.40;;;19.50;99.90;;;;;;4951719;29;20026;-70
2021/08/30 08:15:36;;;;;;;25.05;14.30;;;19.40;99.90;;;;;;4952203;28;20478;-69
2021/08/30 08:18:03;;;;;;;24.13;13.95;;;19.40;99.90;;;;;;4949751;28;20031;-70
2021/08/30 08:20:31;;;;;;;22.17;13.88;;;19.40;99.90;;;;;;4952846;28;20047;-69
2021/08/30 08:22:57;;;;;;;20.90;14.65;;;19.40;99.90;;;;;;4954383;28;20402;-69
2021/08/30 08:25:23;;;;;;;21.58;14.18;;;19.50;99.90;;;;;;4954007;28;20039;-69
2021/08/30 08:27:48;;;;;;;19.95;14.00;;;19.50;99.90;;;;;;4953857;28;20582;-72
2021/08/30 08:30:17;;;;;;;16.90;13.13;;;19.50;99.90;;;;;;4952929;29;20031;-70
2021/08/30 08:32:42;;;;;;;23.15;15.10;;;19.50;99.90;;;;;;4954153;28;20083;-69
2021/08/30 08:35:09;;;;;;;20.65;13.55;;;19.70;99.90;;;;;;4952843;28;20453;-69
2021/08/30 08:37:35;;;;;;;22.08;13.43;;;19.80;99.90;;;;;;4953298;29;20034;-69
2021/08/30 08:40:01;;;;;;;19.77;13.48;;;19.70;99.70;;;;;;4945816;28;20032;-69
2021/08/30 08:42:26;;;;;;;22.33;14.15;;;19.70;99.60;;;;;;4952592;28;20035;-68
2021/08/30 08:44:52;;;;;;;19.13;12.45;;;19.70;99.40;;;;;;4953592;28;20177;-68
2021/08/30 08:47:18;;;;;;;19.27;12.82;;;19.70;99.30;;;;;;4949928;28;20418;-68
2021/08/30 08:49:44;;;;;;;17.83;13.50;;;19.60;99.40;;;;;;4954006;28;20043;-69
2021/08/30 08:52:10;;;;;;;17.30;12.70;;;19.70;99.30;;;;;;4954263;28;20019;-69
2021/08/30 08:54:45;;;;;;;17.73;12.52;;;19.70;99.20;;;;;;4952323;29;20041;-69
2021/08/30 08:57:10;;;;;;;17.20;11.48;;;19.70;99.00;;;;;;4953936;29;20023;-68
2021/08/30 08:59:38;;;;;;;17.75;12.18;;;19.70;99.10;;;;;;4953723;29;20078;-69
2021/08/30 09:02:06;;;;;;;18.42;12.00;;;19.80;99.10;;;;;;4953754;28;20027;-68
2021/08/30 09:04:33;;;;;;;18.55;12.32;;;19.90;98.90;;;;;;4953643;29;20386;-69
2021/08/30 09:07:12;;;;;;;18.13;12.75;;;19.90;98.80;;;;;;4954139;28;20039;-69
2021/08/30 09:09:41;;;;;;;17.20;12.52;;;20.00;98.60;;;;;;4949489;28;20031;-69
2021/08/30 09:12:21;;;;;;;16.13;11.57;;;20.10;98.60;;;;;;4945610;29;20032;-69
2021/08/30 09:14:47;;;;;;;18.08;11.48;;;20.40;98.80;;;;;;4949534;28;20363;-69
2021/08/30 09:17:13;;;;;;;15.50;11.02;;;20.70;98.20;;;;;;4953826;28;20023;-68
2021/08/30 09:19:40;;;;;;;15.88;11.13;;;20.80;97.50;;;;;;4953274;28;20027;-67
2021/08/30 09:22:07;;;;;;;15.43;10.48;;;21.00;97.10;;;;;;4953607;28;20101;-70
2021/08/30 09:24:34;;;;;;;16.20;9.35;;;21.10;96.90;;;;;;4950786;28;20027;-69
2021/08/30 09:27:11;;;;;;;15.43;10.13;;;21.20;96.80;;;;;;4953400;28;20027;-69
2021/08/30 09:29:41;;;;;;;13.38;9.23;;;21.20;96.30;;;;;;4952620;29;20023;-68
2021/08/30 09:32:11;;;;;;;15.52;8.93;;;21.20;96.40;;;;;;4942318;28;20127;-70
2021/08/30 09:34:39;;;;;;;11.77;8.13;;;21.20;96.30;;;;;;4938802;29;20046;-67
2021/08/30 09:37:12;;;;;;;13.43;8.55;;;21.30;96.00;;;;;;4953815;29;20051;-69
2021/08/30 09:39:57;;;;;;;14.38;8.48;;;21.40;95.60;;;;;;4953072;28;20481;-69
2021/08/30 09:42:24;;;;;;;9.75;7.25;;;21.50;95.10;;;;;;4952774;29;20038;-69
2021/08/30 09:44:50;;;;;;;7.53;6.43;;;21.60;95.00;;;;;;4953585;28;20106;-68
2021/08/30 09:47:18;;;;;;;10.00;7.13;;;21.70;94.80;;;;;;4952401;28;20023;-68
2021/08/30 09:49:48;;;;;;;10.60;6.95;;;21.80;94.70;;;;;;4952127;29;20031;-68
2021/08/30 09:52:14;;;;;;;9.77;6.90;;;21.90;94.50;;;;;;4953124;28;20110;-68
2021/08/30 09:54:39;;;;;;;11.20;7.72;;;22.00;94.20;;;;;;4953813;28;20450;-68
2021/08/30 09:57:06;;;;;;;12.25;7.15;;;21.90;94.20;;;;;;4953401;28;20031;-68
2021/08/30 09:59:32;;;;;;;14.52;7.75;;;21.70;94.30;;;;;;4956122;28;20039;-68
2021/08/30 10:02:01;;;;;;;8.18;6.57;;;21.60;94.10;;;;;;4956624;29;20114;-68
2021/08/30 10:04:28;;;;;;;10.38;7.80;;;21.40;94.00;;;;;;4956576;28;20035;-68
2021/08/30 10:06:54;;;;;;;10.13;6.57;;;21.20;94.40;;;;;;4955261;29;20039;-69
2021/08/30 10:09:21;;;;;;;12.80;7.68;;;21.20;94.40;;;;;;4956497;28;20382;-68
2021/08/30 10:11:52;;;;;;;12.80;7.90;;;21.20;94.20;;;;;;4955478;29;20023;-69
2021/08/30 10:14:21;;;;;;;10.83;7.10;;;21.10;94.30;;;;;;4956435;28;20027;-68
2021/08/30 10:16:47;;;;;;;10.82;6.85;;;21.20;94.60;;;;;;4956993;28;20357;-69
2021/08/30 10:19:25;;;;;;;10.10;6.55;;;21.40;94.40;;;;;;4955480;28;20437;-70
2021/08/30 10:21:50;;;;;;;7.03;6.10;;;21.60;93.80;;;;;;4956834;28;20038;-67
2021/08/30 10:24:17;;;;;;;9.82;7.63;;;21.70;93.30;;;;;;4950307;28;20040;-67
2021/08/30 10:26:47;;;;;;;8.95;6.35;;;21.80;92.60;;;;;;4950910;29;20023;-69
2021/08/30 10:29:13;;;;;;;8.30;6.05;;;21.80;92.50;;;;;;4955216;28;20050;-68
2021/08/30 10:31:50;;;;;;;7.35;6.35;;;21.80;92.60;;;;;;4956021;28;20022;-68
2021/08/30 10:34:30;;;;;;;8.95;6.85;;;21.90;92.50;;;;;;4955313;28;20381;-68
2021/08/30 10:36:57;;;;;;;10.75;7.57;;;21.90;92.40;;;;;;4950769;29;20063;-68
2021/08/30 10:39:35;;;;;;;8.63;6.55;;;21.80;92.30;;;;;;4955557;28;20113;-68
2021/08/30 10:42:02;;;;;;;10.48;7.13;;;21.70;92.00;;;;;;4955729;28;20039;-68
2021/08/30 10:44:27;;;;;;;13.80;7.47;;;21.60;92.10;;;;;;4955788;28;20041;-70
2021/08/30 10:46:56;;;;;;;9.70;7.25;;;21.50;92.30;;;;;;4956401;28;20039;-68
2021/08/30 10:49:29;;;;;;;11.07;7.20;;;21.40;92.20;;;;;;4955720;28;20426;-68
2021/08/30 10:52:13;;;;;;;11.10;6.72;;;21.40;92.30;;;;;;4955509;28;20026;-68
2021/08/30 10:54:58;;;;;;;10.38;6.55;;;21.50;92.60;;;;;;4951218;29;20019;-67
2021/08/30 10:57:37;;;;;;;9.20;5.93;;;21.70;92.50;;;;;;4947586;29;20054;-67
2021/08/30 11:00:10;;;;;;;11.23;5.90;;;21.90;91.30;;;;;;4955761;29;20162;-67
2021/08/30 11:02:44;;;;;;;10.63;6.53;;;21.90;91.20;;;;;;4954474;28;20037;-67
2021/08/30 11:05:10;;;;;;;11.23;6.25;;;21.80;90.90;;;;;;4954038;29;20123;-67
2021/08/30 11:07:36;;;;;;;8.80;6.53;;;21.80;91.30;;;;;;4953051;28;20114;-67
2021/08/30 11:10:07;;;;;;;10.82;7.43;;;22.00;90.90;;;;;;4952774;28;20035;-67
2021/08/30 11:12:33;;;;;;;8.68;6.25;;;22.00;90.60;;;;;;4947949;28;20023;-67
2021/08/30 11:14:59;;;;;;;9.23;6.20;;;22.10;90.60;;;;;;4954174;28;20028;-67
2021/08/30 11:17:26;;;;;;;8.18;6.38;;;22.10;90.20;;;;;;4954948;28;20173;-67
2021/08/30 11:19:57;;;;;;;9.73;6.38;;;22.10;90.00;;;;;;4954148;28;20494;-67
2021/08/30 11:22:23;;;;;;;8.27;6.18;;;22.10;90.10;;;;;;4954653;29;20392;-67
2021/08/30 11:24:48;;;;;;;8.57;6.35;;;22.10;90.20;;;;;;4966977;28;20019;-67
2021/08/30 11:27:27;;;;;;;9.05;6.30;;;22.20;90.30;;;;;;4955612;28;20019;-67
2021/08/30 11:29:55;;;;;;;7.85;5.50;;;22.30;90.40;;;;;;4953782;28;20023;-67
2021/08/30 11:32:22;;;;;;;6.57;5.13;;;22.30;90.30;;;;;;4951350;29;20036;-68
2021/08/30 11:34:49;;;;;;;7.35;5.15;;;22.50;90.20;;;;;;4954539;28;20016;-67
2021/08/30 11:37:18;;;;;;;7.47;4.68;;;22.50;89.50;;;;;;4954560;28;20027;-67
2021/08/30 11:39:47;;;;;;;5.72;4.90;;;22.40;88.80;;;;;;4954100;28;20030;-67
2021/08/30 11:42:16;;;;;;;7.68;5.57;;;22.40;89.00;;;;;;4953653;28;20043;-67
2021/08/30 11:44:43;;;;;;;9.30;5.88;;;22.30;88.40;;;;;;4954162;28;20027;-67
2021/08/30 11:47:11;;;;;;;9.05;5.70;;;22.40;87.90;;;;;;4952432;28;20115;-67
2021/08/30 11:49:42;;;;;;;7.43;5.40;;;22.50;88.00;;;;;;4954030;28;20094;-67
2021/08/30 11:52:10;;;;;;;7.65;6.53;;;22.70;87.70;;;;;;4951355;28;20023;-68
2021/08/30 11:54:38;;;;;;;7.18;5.22;;;22.90;86.20;;;;;;4954686;28;20047;-67
2021/08/30 11:57:10;;;;;;;7.18;4.90;;;22.90;86.30;;;;;;4947005;28;20102;-68
2021/08/30 11:59:38;;;;;;;7.22;5.35;;;23.00;86.20;;;;;;4952812;28;20082;-68
2021/08/30 12:02:06;;;;;;;8.25;6.70;;;23.00;86.60;;;;;;4953233;28;20063;-69
2021/08/30 12:04:36;;;;;;;11.63;6.63;;;23.00;87.40;;;;;;4951105;28;20058;-69
2021/08/30 12:07:04;;;;;;;9.57;6.13;;;22.90;88.30;;;;;;4953885;28;20580;-69
2021/08/30 12:09:49;;;;;;;9.63;6.38;;;22.80;89.00;;;;;;4952374;28;20508;-69
2021/08/30 12:12:29;;;;;;;13.20;6.80;;;22.70;89.80;;;;;;4953991;28;20093;-68
2021/08/30 12:15:07;;;;;;;9.43;6.05;;;22.80;90.20;;;;;;4952028;28;20481;-72
2021/08/30 12:17:41;;;;;;;10.88;6.80;;;22.90;90.20;;;;;;4949018;28;20034;-69
2021/08/30 12:20:21;;;;;;;10.73;6.55;;;22.90;90.00;;;;;;4952081;28;20110;-69
2021/08/30 12:22:46;;;;;;;11.55;6.10;;;22.90;90.20;;;;;;4952772;28;20031;-68
2021/08/30 12:25:21;;;;;;;9.48;6.03;;;22.90;90.30;;;;;;4950220;29;20032;-68
2021/08/30 12:27:48;;;;;;;6.97;5.35;;;23.00;90.30;;;;;;4948908;28;20170;-68
2021/08/30 12:30:24;;;;;;;7.57;5.53;;;23.00;90.00;;;;;;4951982;28;20031;-68
2021/08/30 12:33:08;;;;;;;9.38;6.10;;;23.00;89.20;;;;;;4952794;28;20054;-68
2021/08/30 12:35:39;;;;;;;9.35;4.95;;;23.00;89.10;;;;;;4949785;28;20061;-68
2021/08/30 12:38:09;;;;;;;8.50;5.03;;;23.00;88.30;;;;;;4949315;29;20064;-68